sensor_id;sensor_type;location;lat;lon;timestamp;P1;durP1;ratioP1;P2;durP2;ratioP2
16975;SDS011;8604;48.148;-1.786;2022-10-16T00:01:39;10.07;;;2.10;;
16975;SDS011;8604;48.148;-1.786;2022-10-16T00:04:09;4.13;;;1.60;;
16975;SDS011;8604;48.148;-1.786;2022-10-16T00:06:38;6.67;;;1.97;;
16975;SDS011;8604;48.148;-1.786;2022-10-16T00:09:07;3.43;;;1.60;;
16975;SDS011;8604;48.148;-1.786;2022-10-16T00:11:36;6.87;;;2.00;;
16975;SDS011;8604;48.148;-1.786;2022-10-16T00:14:07;4.67;;;1.70;;
16975;SDS011;8604;48.148;-1.786;2022-10-16T00:16:37;6.97;;;1.90;;
16975;SDS011;8604;48.148;-1.786;2022-10-16T00:19:06;8.87;;;2.63;;
16975;SDS011;8604;48.148;-1.786;2022-10-16T00:21:36;7.37;;;1.80;;
16975;SDS011;8604;48.148;-1.786;2022-10-16T00:24:23;5.27;;;1.70;;
16975;SDS011;8604;48.148;-1.786;2022-10-16T00:26:51;6.50;;;1.60;;
16975;SDS011;8604;48.148;-1.786;2022-10-16T00:29:20;4.73;;;1.70;;
16975;SDS011;8604;48.148;-1.786;2022-10-16T00:31:48;5.47;;;1.93;;
16975;SDS011;8604;48.148;-1.786;2022-10-16T00:34:17;8.70;;;2.30;;
16975;SDS011;8604;48.148;-1.786;2022-10-16T00:36:47;6.07;;;1.90;;
16975;SDS011;8604;48.148;-1.786;2022-10-16T00:39:16;7.37;;;1.90;;
16975;SDS011;8604;48.148;-1.786;2022-10-16T00:41:44;8.83;;;2.23;;
16975;SDS011;8604;48.148;-1.786;2022-10-16T00:47:12;5.33;;;1.90;;
16975;SDS011;8604;48.148;-1.786;2022-10-16T00:49:46;5.20;;;1.93;;
16975;SDS011;8604;48.148;-1.786;2022-10-16T00:52:33;8.57;;;2.50;;
16975;SDS011;8604;48.148;-1.786;2022-10-16T00:55:02;7.60;;;2.33;;
16975;SDS011;8604;48.148;-1.786;2022-10-16T00:57:32;10.13;;;2.90;;
16975;SDS011;8604;48.148;-1.786;2022-10-16T01:00:01;5.93;;;2.67;;
16975;SDS011;8604;48.148;-1.786;2022-10-16T01:02:32;6.67;;;2.83;;
16975;SDS011;8604;48.148;-1.786;2022-10-16T01:05:18;11.53;;;3.17;;
16975;SDS011;8604;48.148;-1.786;2022-10-16T01:07:49;10.37;;;3.77;;
16975;SDS011;8604;48.148;-1.786;2022-10-16T01:10:27;9.33;;;4.00;;
16975;SDS011;8604;48.148;-1.786;2022-10-16T01:13:01;7.27;;;3.47;;
16975;SDS011;8604;48.148;-1.786;2022-10-16T01:15:35;10.00;;;4.03;;
16975;SDS011;8604;48.148;-1.786;2022-10-16T01:18:11;7.37;;;4.00;;
16975;SDS011;8604;48.148;-1.786;2022-10-16T01:20:45;12.27;;;4.50;;
16975;SDS011;8604;48.148;-1.786;2022-10-16T01:23:25;7.90;;;3.67;;
16975;SDS011;8604;48.148;-1.786;2022-10-16T01:26:14;6.83;;;3.87;;
16975;SDS011;8604;48.148;-1.786;2022-10-16T01:29:01;9.83;;;4.07;;
16975;SDS011;8604;48.148;-1.786;2022-10-16T01:31:39;9.20;;;3.97;;
16975;SDS011;8604;48.148;-1.786;2022-10-16T01:34:15;11.00;;;4.17;;
16975;SDS011;8604;48.148;-1.786;2022-10-16T01:37:06;11.77;;;5.23;;
16975;SDS011;8604;48.148;-1.786;2022-10-16T01:39:39;9.60;;;4.40;;
16975;SDS011;8604;48.148;-1.786;2022-10-16T01:42:16;8.90;;;4.60;;
16975;SDS011;8604;48.148;-1.786;2022-10-16T01:44:49;8.80;;;4.40;;
16975;SDS011;8604;48.148;-1.786;2022-10-16T01:47:21;10.33;;;4.53;;
16975;SDS011;8604;48.148;-1.786;2022-10-16T01:49:53;11.70;;;4.50;;
16975;SDS011;8604;48.148;-1.786;2022-10-16T01:52:24;8.80;;;4.50;;
16975;SDS011;8604;48.148;-1.786;2022-10-16T01:54:55;16.03;;;5.50;;
16975;SDS011;8604;48.148;-1.786;2022-10-16T01:57:25;12.03;;;5.00;;
16975;SDS011;8604;48.148;-1.786;2022-10-16T01:59:58;9.93;;;4.50;;
16975;SDS011;8604;48.148;-1.786;2022-10-16T02:02:38;9.67;;;5.27;;
16975;SDS011;8604;48.148;-1.786;2022-10-16T02:05:09;11.50;;;5.37;;
16975;SDS011;8604;48.148;-1.786;2022-10-16T02:07:43;11.13;;;5.10;;
16975;SDS011;8604;48.148;-1.786;2022-10-16T02:10:11;12.00;;;5.97;;
16975;SDS011;8604;48.148;-1.786;2022-10-16T02:12:40;10.00;;;5.37;;
16975;SDS011;8604;48.148;-1.786;2022-10-16T02:15:15;8.43;;;4.40;;
16975;SDS011;8604;48.148;-1.786;2022-10-16T02:17:43;8.70;;;5.00;;
16975;SDS011;8604;48.148;-1.786;2022-10-16T02:20:12;9.40;;;4.57;;
16975;SDS011;8604;48.148;-1.786;2022-10-16T02:22:42;10.33;;;5.00;;
16975;SDS011;8604;48.148;-1.786;2022-10-16T02:25:15;9.00;;;4.93;;
16975;SDS011;8604;48.148;-1.786;2022-10-16T02:27:50;8.30;;;4.83;;
16975;SDS011;8604;48.148;-1.786;2022-10-16T02:30:25;9.03;;;4.80;;
16975;SDS011;8604;48.148;-1.786;2022-10-16T02:32:58;11.83;;;5.67;;
16975;SDS011;8604;48.148;-1.786;2022-10-16T02:35:29;11.63;;;5.07;;
16975;SDS011;8604;48.148;-1.786;2022-10-16T02:37:59;9.80;;;5.23;;
16975;SDS011;8604;48.148;-1.786;2022-10-16T02:40:28;13.27;;;5.27;;
16975;SDS011;8604;48.148;-1.786;2022-10-16T02:42:56;9.00;;;4.90;;
16975;SDS011;8604;48.148;-1.786;2022-10-16T02:45:26;7.80;;;4.67;;
16975;SDS011;8604;48.148;-1.786;2022-10-16T02:47:55;9.27;;;5.13;;
16975;SDS011;8604;48.148;-1.786;2022-10-16T02:50:24;11.67;;;4.73;;
16975;SDS011;8604;48.148;-1.786;2022-10-16T02:52:52;10.60;;;5.47;;
16975;SDS011;8604;48.148;-1.786;2022-10-16T02:55:21;12.10;;;5.33;;
16975;SDS011;8604;48.148;-1.786;2022-10-16T02:57:50;8.83;;;4.60;;
16975;SDS011;8604;48.148;-1.786;2022-10-16T03:00:19;8.23;;;4.57;;
16975;SDS011;8604;48.148;-1.786;2022-10-16T03:02:49;10.03;;;5.00;;
16975;SDS011;8604;48.148;-1.786;2022-10-16T03:05:17;9.70;;;4.63;;
16975;SDS011;8604;48.148;-1.786;2022-10-16T03:07:46;12.00;;;5.13;;
16975;SDS011;8604;48.148;-1.786;2022-10-16T03:10:28;12.17;;;5.13;;
16975;SDS011;8604;48.148;-1.786;2022-10-16T03:12:56;9.47;;;4.97;;
16975;SDS011;8604;48.148;-1.786;2022-10-16T03:15:25;11.63;;;5.33;;
16975;SDS011;8604;48.148;-1.786;2022-10-16T03:17:56;12.60;;;5.80;;
16975;SDS011;8604;48.148;-1.786;2022-10-16T03:20:25;14.03;;;6.47;;
16975;SDS011;8604;48.148;-1.786;2022-10-16T03:22:54;11.10;;;5.63;;
16975;SDS011;8604;48.148;-1.786;2022-10-16T03:25:23;11.57;;;5.47;;
16975;SDS011;8604;48.148;-1.786;2022-10-16T03:27:51;11.30;;;5.47;;
16975;SDS011;8604;48.148;-1.786;2022-10-16T03:30:20;11.53;;;5.80;;
16975;SDS011;8604;48.148;-1.786;2022-10-16T03:32:48;16.03;;;5.40;;
16975;SDS011;8604;48.148;-1.786;2022-10-16T03:35:22;12.13;;;5.47;;
16975;SDS011;8604;48.148;-1.786;2022-10-16T03:37:51;12.50;;;5.77;;
16975;SDS011;8604;48.148;-1.786;2022-10-16T03:40:19;11.43;;;5.27;;
16975;SDS011;8604;48.148;-1.786;2022-10-16T03:42:48;11.67;;;6.10;;
16975;SDS011;8604;48.148;-1.786;2022-10-16T03:45:16;18.97;;;6.80;;
16975;SDS011;8604;48.148;-1.786;2022-10-16T03:47:45;10.93;;;5.87;;
16975;SDS011;8604;48.148;-1.786;2022-10-16T03:50:14;13.47;;;6.13;;
16975;SDS011;8604;48.148;-1.786;2022-10-16T03:52:44;16.87;;;6.67;;
16975;SDS011;8604;48.148;-1.786;2022-10-16T03:55:12;16.53;;;7.30;;
16975;SDS011;8604;48.148;-1.786;2022-10-16T03:57:43;14.97;;;6.43;;
16975;SDS011;8604;48.148;-1.786;2022-10-16T04:00:13;12.30;;;6.40;;
16975;SDS011;8604;48.148;-1.786;2022-10-16T04:02:42;10.23;;;6.30;;
16975;SDS011;8604;48.148;-1.786;2022-10-16T04:05:10;11.57;;;6.47;;
16975;SDS011;8604;48.148;-1.786;2022-10-16T04:07:45;9.10;;;6.23;;
16975;SDS011;8604;48.148;-1.786;2022-10-16T04:10:17;9.40;;;6.00;;
16975;SDS011;8604;48.148;-1.786;2022-10-16T04:12:46;36.17;;;8.47;;
16975;SDS011;8604;48.148;-1.786;2022-10-16T04:15:15;15.97;;;7.40;;
16975;SDS011;8604;48.148;-1.786;2022-10-16T04:17:44;18.73;;;7.40;;
16975;SDS011;8604;48.148;-1.786;2022-10-16T04:20:13;13.57;;;7.03;;
16975;SDS011;8604;48.148;-1.786;2022-10-16T04:22:41;13.43;;;7.70;;
16975;SDS011;8604;48.148;-1.786;2022-10-16T04:25:11;12.53;;;6.47;;
16975;SDS011;8604;48.148;-1.786;2022-10-16T04:27:40;13.77;;;7.30;;
16975;SDS011;8604;48.148;-1.786;2022-10-16T04:30:12;14.03;;;6.67;;
16975;SDS011;8604;48.148;-1.786;2022-10-16T04:32:40;12.67;;;7.00;;
16975;SDS011;8604;48.148;-1.786;2022-10-16T04:35:09;9.67;;;6.27;;
16975;SDS011;8604;48.148;-1.786;2022-10-16T04:37:38;9.40;;;5.37;;
16975;SDS011;8604;48.148;-1.786;2022-10-16T04:40:07;11.53;;;7.00;;
16975;SDS011;8604;48.148;-1.786;2022-10-16T04:42:37;13.63;;;6.77;;
16975;SDS011;8604;48.148;-1.786;2022-10-16T04:45:07;11.77;;;5.87;;
16975;SDS011;8604;48.148;-1.786;2022-10-16T04:47:42;11.23;;;6.40;;
16975;SDS011;8604;48.148;-1.786;2022-10-16T04:50:11;12.40;;;6.80;;
16975;SDS011;8604;48.148;-1.786;2022-10-16T04:52:39;15.20;;;7.47;;
16975;SDS011;8604;48.148;-1.786;2022-10-16T04:55:08;12.53;;;6.90;;
16975;SDS011;8604;48.148;-1.786;2022-10-16T04:57:38;12.30;;;6.60;;
16975;SDS011;8604;48.148;-1.786;2022-10-16T05:00:08;11.83;;;7.07;;
16975;SDS011;8604;48.148;-1.786;2022-10-16T05:02:37;15.73;;;8.30;;
16975;SDS011;8604;48.148;-1.786;2022-10-16T05:05:06;14.50;;;7.33;;
16975;SDS011;8604;48.148;-1.786;2022-10-16T05:07:55;12.30;;;6.73;;
16975;SDS011;8604;48.148;-1.786;2022-10-16T05:10:24;11.93;;;7.33;;
16975;SDS011;8604;48.148;-1.786;2022-10-16T05:12:54;14.27;;;7.83;;
16975;SDS011;8604;48.148;-1.786;2022-10-16T05:15:22;17.67;;;9.40;;
16975;SDS011;8604;48.148;-1.786;2022-10-16T05:17:52;20.60;;;8.60;;
16975;SDS011;8604;48.148;-1.786;2022-10-16T05:20:21;22.37;;;10.10;;
16975;SDS011;8604;48.148;-1.786;2022-10-16T05:22:50;13.77;;;8.97;;
16975;SDS011;8604;48.148;-1.786;2022-10-16T05:25:18;12.23;;;7.93;;
16975;SDS011;8604;48.148;-1.786;2022-10-16T05:27:47;12.43;;;8.57;;
16975;SDS011;8604;48.148;-1.786;2022-10-16T05:30:17;13.57;;;9.10;;
16975;SDS011;8604;48.148;-1.786;2022-10-16T05:32:47;15.93;;;8.87;;
16975;SDS011;8604;48.148;-1.786;2022-10-16T05:35:16;13.93;;;8.63;;
16975;SDS011;8604;48.148;-1.786;2022-10-16T05:37:46;11.90;;;7.47;;
16975;SDS011;8604;48.148;-1.786;2022-10-16T05:40:16;11.90;;;7.40;;
16975;SDS011;8604;48.148;-1.786;2022-10-16T05:42:44;17.27;;;7.70;;
16975;SDS011;8604;48.148;-1.786;2022-10-16T21:31:43;13.73;;;6.07;;
16975;SDS011;8604;48.148;-1.786;2022-10-16T21:34:11;12.97;;;6.03;;
16975;SDS011;8604;48.148;-1.786;2022-10-16T21:36:40;13.57;;;6.00;;
16975;SDS011;8604;48.148;-1.786;2022-10-16T21:39:10;12.17;;;6.00;;
16975;SDS011;8604;48.148;-1.786;2022-10-16T21:41:43;11.80;;;5.90;;
16975;SDS011;8604;48.148;-1.786;2022-10-16T21:44:17;12.17;;;6.30;;
16975;SDS011;8604;48.148;-1.786;2022-10-16T21:46:48;10.50;;;6.00;;
16975;SDS011;8604;48.148;-1.786;2022-10-16T21:49:17;14.73;;;6.53;;
16975;SDS011;8604;48.148;-1.786;2022-10-16T21:51:46;12.53;;;6.50;;
16975;SDS011;8604;48.148;-1.786;2022-10-16T21:54:16;12.80;;;6.20;;
16975;SDS011;8604;48.148;-1.786;2022-10-16T21:56:46;14.23;;;6.47;;
16975;SDS011;8604;48.148;-1.786;2022-10-16T21:59:35;16.40;;;6.87;;
16975;SDS011;8604;48.148;-1.786;2022-10-16T22:02:05;18.37;;;5.93;;
16975;SDS011;8604;48.148;-1.786;2022-10-16T22:04:33;14.63;;;5.80;;
16975;SDS011;8604;48.148;-1.786;2022-10-16T22:07:02;13.23;;;6.30;;
16975;SDS011;8604;48.148;-1.786;2022-10-16T22:09:30;11.07;;;5.80;;
16975;SDS011;8604;48.148;-1.786;2022-10-16T22:11:59;13.07;;;6.20;;
16975;SDS011;8604;48.148;-1.786;2022-10-16T22:14:27;14.47;;;6.47;;
16975;SDS011;8604;48.148;-1.786;2022-10-16T22:16:55;14.03;;;5.97;;
16975;SDS011;8604;48.148;-1.786;2022-10-16T22:19:28;12.30;;;6.00;;
16975;SDS011;8604;48.148;-1.786;2022-10-16T22:22:05;14.90;;;6.47;;
16975;SDS011;8604;48.148;-1.786;2022-10-16T22:24:34;11.37;;;5.97;;
16975;SDS011;8604;48.148;-1.786;2022-10-16T22:27:02;11.27;;;6.43;;
16975;SDS011;8604;48.148;-1.786;2022-10-16T22:29:31;13.07;;;6.10;;
16975;SDS011;8604;48.148;-1.786;2022-10-16T22:31:59;15.90;;;6.77;;
16975;SDS011;8604;48.148;-1.786;2022-10-16T22:34:31;12.20;;;6.43;;
16975;SDS011;8604;48.148;-1.786;2022-10-16T22:37:00;12.87;;;6.20;;
16975;SDS011;8604;48.148;-1.786;2022-10-16T22:39:29;10.87;;;6.07;;
16975;SDS011;8604;48.148;-1.786;2022-10-16T22:41:58;15.93;;;6.53;;
16975;SDS011;8604;48.148;-1.786;2022-10-16T22:44:27;11.60;;;6.30;;
16975;SDS011;8604;48.148;-1.786;2022-10-16T22:47:16;14.13;;;6.27;;
16975;SDS011;8604;48.148;-1.786;2022-10-16T22:49:46;11.90;;;6.20;;
16975;SDS011;8604;48.148;-1.786;2022-10-16T22:52:15;13.73;;;6.30;;
16975;SDS011;8604;48.148;-1.786;2022-10-16T22:54:44;18.53;;;6.73;;
16975;SDS011;8604;48.148;-1.786;2022-10-16T22:57:12;10.73;;;6.67;;
16975;SDS011;8604;48.148;-1.786;2022-10-16T22:59:41;13.20;;;6.47;;
16975;SDS011;8604;48.148;-1.786;2022-10-16T23:02:09;13.23;;;6.30;;
16975;SDS011;8604;48.148;-1.786;2022-10-16T23:04:37;15.87;;;6.57;;
16975;SDS011;8604;48.148;-1.786;2022-10-16T23:07:07;15.23;;;6.67;;
16975;SDS011;8604;48.148;-1.786;2022-10-16T23:09:36;17.03;;;7.17;;
16975;SDS011;8604;48.148;-1.786;2022-10-16T23:12:04;16.20;;;7.27;;
16975;SDS011;8604;48.148;-1.786;2022-10-16T23:14:33;10.90;;;6.47;;
16975;SDS011;8604;48.148;-1.786;2022-10-16T23:17:01;15.93;;;7.07;;
16975;SDS011;8604;48.148;-1.786;2022-10-16T23:19:29;14.57;;;7.37;;
16975;SDS011;8604;48.148;-1.786;2022-10-16T23:21:58;12.50;;;6.93;;
16975;SDS011;8604;48.148;-1.786;2022-10-16T23:24:30;10.00;;;6.70;;
16975;SDS011;8604;48.148;-1.786;2022-10-16T23:26:58;12.57;;;6.57;;
16975;SDS011;8604;48.148;-1.786;2022-10-16T23:29:27;15.07;;;7.47;;
16975;SDS011;8604;48.148;-1.786;2022-10-16T23:31:56;13.67;;;7.20;;
16975;SDS011;8604;48.148;-1.786;2022-10-16T23:34:25;14.53;;;7.40;;
16975;SDS011;8604;48.148;-1.786;2022-10-16T23:36:53;18.73;;;7.57;;
16975;SDS011;8604;48.148;-1.786;2022-10-16T23:39:22;14.83;;;7.27;;
16975;SDS011;8604;48.148;-1.786;2022-10-16T23:41:51;13.03;;;6.80;;
16975;SDS011;8604;48.148;-1.786;2022-10-16T23:44:20;15.33;;;7.40;;
16975;SDS011;8604;48.148;-1.786;2022-10-16T23:46:49;16.13;;;7.40;;
16975;SDS011;8604;48.148;-1.786;2022-10-16T23:49:17;16.03;;;6.37;;
16975;SDS011;8604;48.148;-1.786;2022-10-16T23:51:45;15.63;;;7.30;;
16975;SDS011;8604;48.148;-1.786;2022-10-16T23:54:14;17.50;;;7.20;;
16975;SDS011;8604;48.148;-1.786;2022-10-16T23:56:43;13.10;;;7.03;;
16975;SDS011;8604;48.148;-1.786;2022-10-16T23:59:14;18.10;;;7.30;;
